Terminal Aerodrome Forecast
Issued by NWS Binghamton, NY

Home | Current Version | Previous Version | Text Only | Print | Product List | Glossary On
Versions: 1 2 3 4 5 6 7 8 9 10 11 12 13 14 15 16 17 18 19 20 21 22
000
FTUS41 KBGM 071730
TAFBGM
TAF
KBGM 071730Z 0718/0818 22010KT P6SM SCT020 BKN035
      TEMPO 0718/0720 BKN020
     FM072100 24006KT P6SM SCT035
     FM080500 24006KT 5SM SHRA OVC020
     FM080900 29008KT P6SM OVC008
     FM081400 33006KT P6SM SCT030=

USA.gov is the U.S. government's official web portal to all federal, state and local government web resources and services.